[Jeden Montag | 1700z - 2000z ] EDDL | Duesseldorf Monday

Zu Eventkalender hinzugefügt: 588 Daten

Maurice Szmudzinski

1332208
RG Düsseldorf - Event
Heute ist wieder Düsseldorf Monday!
Wir freuen uns auf euren Besuch in der Landeshauptstadt und bieten euch gewohnt guten Service!
Genießt es und wir freuen uns auf euch.

Liebe Grüße
Maurice
 

Kai Schuele

1482477
RG Düsseldorf - Event
Heute ist es wieder soweit!
Bei bestem Wetter öffnet der Düsseldorfer Flughafen ab 17:00z wieder seine Tore und ihr seit Herzlich eingeladen VFR oder IFR vorbei zukommen!

TAF:
EDDL 131100Z 1312/1418 VRB03KT CAVOK TEMPO 1312/1318 34005KT BECMG 1407/1410 27006KT


 

Kai Schuele

1482477
RG Düsseldorf - Event
Und wieder ist Montag,
Heute öffnet der Internationale Flughafen in Düsseldorf wieder Ab 17:00Z vom Ground bis zum Center und ihr seit bei Bestem Wetter eingeladen vorbei zu kommen. Fliegt eine Runde VFR über die Landeshauptstadt und erkundet die Gegend oder bringt IFR eure Passagiere in den Urlaub oder zurück.

Wir sind bereit und freuen uns auf euch!
Bis Später auf Frequenz!

TAF: EDDL 201130Z 2012/2118 35008KT 9999 FEW045 BECMG 2018/2021 35003KT BECMG 2108/2111 34008KT
 
Zuletzt bearbeitet:

Kai Schuele

1482477
RG Düsseldorf - Event
Heute ist wieder Düsseldorf Monday und ihr seit eingeladen ab 17:00Z dabei zu sein.
Das Wetter ist momentan noch etwas bewölkt aber soll gegen Abend aufklaren, dass heißt beste Voraussetzungen für eine VFR Tour durch das Rheinland oder IFR den blick aus der Dünnluft genießen.
Unterstützt unsere Trainees auf dem Ground und Tower mit eurem Flug.
Wir freuen uns auf euch, bis Später!

TAF: EDDL 271100Z 2712/2818 17010KT 9999 FEW030 BECMG 2721/2724 23010KT BECMG 2807/2810 25015G25KT BECMG 2815/2818 28010KT
 
Zuletzt bearbeitet:

Kai Schuele

1482477
RG Düsseldorf - Event
Heute ist wieder Düsseldorf Monday,
Wir sind heute wieder von 17:00Z bis 20:00Z in Düsseldorf für euch da und unterstützen eure Flüge mit bestem ATC Service vom Ground bis zum Center. Besonders zu erwähnen sind unsere Trainees auf Ground und Tower die heute ihrem Ziel der Prüfung näher kommen möchten also Unterstützt sie VFR oder IFR!

Bis heute Abend auf Frequenz!

TAF: EDDL 031100Z 0312/0418 35006KT CAVOK PROB30 TEMPO 0405/0408 BKN012
 

Kai Schuele

1482477
RG Düsseldorf - Event

Heute übernehmen unsere Trainees wieder den Düsseldorf Monday!
Wie jeden Montag öffnet der Düsseldorfer Flughafen wieder seine Tore.
Von 17:00Z-22:00Z (19:00-22:00lcl) sind unsere Trainees für euch da und möchten ihr können unter beweis stellen!
Unterstützt sie VFR oder IFR bei bestem Wetter mit eurem Flug von oder nach Düsseldorf!

Bis Heute Abend!

TAF: EDDL 101100Z 1012/1118 06007KT CAVOK PROB30 TEMPO 1013/1017 07015G35KT TSRA SCT070CB TEMPO 1107/1112 12007KT PROB30 TEMPO 1112/1118 26015G35KT TSRA SCT070CB
 

Kai Schuele

1482477
RG Düsseldorf - Event


Auch Heute öffnen wir wieder Unseren Ausbildungsflughafen Düsseldorf (EDDL).

Von 17:00-20:00Z (19:00-22:00lcl) sind wir von Ground bis Center für euch da und bieten euch gewohnt guten ATC Service!
Unterstützt unsere Trainees auf Ground, Tower und Center mit eurem IFR oder VFR Flug und fliegt zum beispiel die Rennstrecken zu den Kollegen nach Nürnberg und/oder zurück. Aber auch jeder andere Flug ist Herzlich Willkommen!

Wir freuen uns auf euch bis Heute Abend!


Charts für den Flughafen Düsseldorf findet ihr hier.

TAF: EDDL 171100Z 1712/1818 19005KT 9999 FEW035 PROB40 TEMPO 1712/1719 19015G25KT TSRA SCT020CB BECMG 1805/1808 25008KT PROB30 TEMPO 1815/1818 27015G25KT TSRA SCT020CB
 
Zuletzt bearbeitet:

Kai Schuele

1482477
RG Düsseldorf - Event


Es ist wieder Montag und zum Wochen start gibt es Heute besten ATC Service am Niederrhein!

Heute wieder ab 17:00Z (19:00lcl) für euch da, der Flughafen Düsseldorf und das voll Besetzt von Ground bis Center!
Besucht die Schöne Landeshauptstadt von NRW mit eurem Flug, egal ob IFR oder VFR bei uns ist jeder Willkommen!
Die Wöchentliche Rennstrecke nach Nürnberg ist natürlich auch diese Woche unser kleiner geheim Tipp! Aber auch jede andere Destination ob kurz, mittel oder Langstrecke kann von Düsseldorf bedient werden!
Also ab 17:00Z rein in den Flieger und los geht es von Düsseldorf in die große weite Welt!

Wir freuen uns euch heute Abend auf Frequenz empfangen zu dürfen!

Düsseldorf International (EDDL) Charts:

TAF: EDDL 240500Z 2406/2512 24012KT 9999 SCT035 PROB30 TEMPO 2416/2420 SHRA SCT014CB BECMG 2417/2419 21006KT BECMG 2504/2507 19012KT
 
Zuletzt bearbeitet:

Kai Schuele

1482477
RG Düsseldorf - Event


Heute öffnet die Landeshauptstadt wieder ihren Internationalen Flughafen zum Düsseldorf Monday!

Von 17:00z - 20:00z (19:00-22:00lcl) gibt es Heute abend wieder Besten ATC Service an Nordrhein-Westfalens größten Passagier Flughafen.
Wie jede Woche bieten wir euch die Rennstrecke zum Onlinetag nach Nürnberg aber auch jede andere Destination ist von Düsseldorf aus zu erreichen.
Besonders zu erwähnen ist heute, dass ab 18:00z (20:00lcl) einer unserer Trainees sich dem Controller Practical Test (CPT) stellt und den Prüfern zeigen will, dass er seine gelernten Fähigkeiten auch umsetzen kann.

Also rein ins Cockpit und kommt uns Heute Abend VFR oder IFR besuchen wir freuen uns auf euch!


Düsseldorf International (EDDL) Charts

TAF: EDDL 310500Z 3106/0112 36006KT 9999 SCT020 BKN030 PROB40 TEMPO 3106/3109 BKN010
 
Oben